Terminal Aerodrome Forecast
Issued by NWS San Angelo, TX

Current Version | Previous Version | Text Only | Print | Product List | Glossary Off
Versions: 1 2 3 4 5 6 7 8 9 10 11 12 13

912
FTUS44 KSJT 252324
TAFABI
TAF
KABI 252324Z 2600/2624 16006KT P6SM SKC
     FM260500 16013G20KT P6SM SKC
     FM261500 19016G25KT P6SM SCT040=

USA.gov is the U.S. government's official web portal to all federal, state and local government web resources and services.